createdAt,value
2023-03-25T00:01:26.240Z,68.61
2023-03-25T00:03:53.709Z,69.27
2023-03-25T00:06:20.779Z,68.92
2023-03-25T00:08:47.712Z,69.15
2023-03-25T00:11:14.780Z,69.83
2023-03-25T00:13:46.490Z,69.73
2023-03-25T00:16:13.541Z,69.67
2023-03-25T00:18:40.551Z,70.25
2023-03-25T00:21:16.658Z,69.41
2023-03-25T00:23:43.741Z,70.31
2023-03-25T00:26:11.252Z,70.18
2023-03-25T00:28:38.808Z,70.49
2023-03-25T00:31:09.280Z,70.24
2023-03-25T00:33:36.287Z,69.54
2023-03-25T00:36:04.789Z,69.24
2023-03-25T00:38:35.419Z,69.47
2023-03-25T00:41:29.012Z,71.17
2023-03-25T00:44:00.868Z,71.21
2023-03-25T00:46:32.087Z,70.73
2023-03-25T00:49:00.294Z,70.56
2023-03-25T00:51:28.473Z,70.88
2023-03-25T00:54:00.388Z,71.67
2023-03-25T00:56:27.992Z,72.30
2023-03-25T00:58:55.806Z,72.84
2023-03-25T01:01:28.783Z,72.46
2023-03-25T01:04:01.959Z,72.84
2023-03-25T01:06:33.542Z,73.09
2023-03-25T01:09:03.070Z,73.67
2023-03-25T01:11:34.890Z,73.53
2023-03-25T01:14:02.960Z,72.14
2023-03-25T01:16:30.342Z,72.21
2023-03-25T01:18:57.610Z,72.16
2023-03-25T01:21:25.878Z,71.88
2023-03-25T01:23:52.865Z,71.34
2023-03-25T01:26:20.066Z,71.57
2023-03-25T01:28:47.112Z,72.98
2023-03-25T01:31:16.172Z,73.45
2023-03-25T01:33:43.333Z,72.82
2023-03-25T01:36:13.187Z,73.94
2023-03-25T01:38:41.161Z,73.45
2023-03-25T01:41:09.900Z,74.11
2023-03-25T01:43:37.094Z,73.50
2023-03-25T01:46:04.621Z,73.40
2023-03-25T01:48:41.907Z,73.16
2023-03-25T01:51:18.461Z,73.54
2023-03-25T01:53:45.933Z,72.79
2023-03-25T01:56:18.416Z,73.07
2023-03-25T01:58:46.641Z,72.63
2023-03-25T02:01:17.176Z,71.99
2023-03-25T02:03:46.697Z,72.39
2023-03-25T02:06:32.112Z,71.87
2023-03-25T02:09:02.295Z,71.71
2023-03-25T02:11:38.297Z,71.91
2023-03-25T02:14:09.236Z,72.16
2023-03-25T02:17:01.776Z,73.42
2023-03-25T02:20:09.428Z,72.30
2023-03-25T02:23:15.037Z,71.97
2023-03-25T02:26:14.428Z,71.92
2023-03-25T02:28:56.169Z,71.72
2023-03-25T02:31:43.167Z,71.85
2023-03-25T02:34:46.442Z,71.75
2023-03-25T02:38:01.439Z,71.50
2023-03-25T02:40:34.872Z,71.32
2023-03-25T02:43:06.482Z,70.99
2023-03-25T02:45:40.694Z,70.51
2023-03-25T02:48:21.650Z,70.40
2023-03-25T02:50:56.454Z,70.13
2023-03-25T02:53:29.408Z,70.49
2023-03-25T02:56:02.398Z,70.63
2023-03-25T02:58:31.001Z,70.50
2023-03-25T03:00:59.147Z,70.62
2023-03-25T03:03:28.474Z,71.63
2023-03-25T03:06:03.917Z,71.54
2023-03-25T03:08:31.675Z,72.16
2023-03-25T03:11:13.711Z,72.21
2023-03-25T03:14:09.839Z,71.42
2023-03-25T03:16:58.545Z,72.00
2023-03-25T03:19:58.545Z,72.20
2023-03-25T03:22:43.604Z,71.79
2023-03-25T03:25:19.085Z,71.42
2023-03-25T03:27:51.999Z,71.66
2023-03-25T03:30:44.031Z,72.45
2023-03-25T03:33:41.120Z,72.31
2023-03-25T03:36:16.461Z,72.92
2023-03-25T03:38:51.233Z,72.10
2023-03-25T03:41:23.952Z,71.85
2023-03-25T03:44:14.342Z,72.00
2023-03-25T03:46:54.821Z,71.47
2023-03-25T03:49:27.795Z,71.25
2023-03-25T03:52:08.999Z,70.08
2023-03-25T03:54:46.520Z,70.19
2023-03-25T03:57:28.001Z,70.05
2023-03-25T04:00:04.474Z,69.47
2023-03-25T04:02:42.067Z,69.24
2023-03-25T04:05:13.732Z,69.03
2023-03-25T04:07:46.768Z,68.83
2023-03-25T04:10:23.394Z,68.72
2023-03-25T04:12:56.000Z,68.42
2023-03-25T04:15:23.042Z,68.39
2023-03-25T04:17:50.366Z,68.52
2023-03-25T04:20:24.138Z,68.29
2023-03-25T04:22:52.597Z,68.57
2023-03-25T04:25:21.778Z,68.92
2023-03-25T04:27:49.406Z,68.55
2023-03-25T04:30:19.894Z,69.42
2023-03-25T04:32:47.817Z,69.23
2023-03-25T04:35:17.127Z,69.30
2023-03-25T04:37:54.588Z,69.72
2023-03-25T04:40:21.758Z,70.25
2023-03-25T04:42:48.922Z,70.31
2023-03-25T04:45:17.161Z,69.91
2023-03-25T04:47:49.205Z,70.40
2023-03-25T04:50:26.204Z,70.70
2023-03-25T04:52:54.722Z,71.48
2023-03-25T04:55:22.039Z,71.71
2023-03-25T04:57:51.664Z,72.45
2023-03-25T05:00:25.039Z,72.84
2023-03-25T05:02:54.926Z,73.26
2023-03-25T05:05:25.206Z,73.74
2023-03-25T05:07:58.449Z,74.53
2023-03-25T05:10:26.713Z,74.61
2023-03-25T05:13:04.909Z,75.31
2023-03-25T05:15:35.638Z,76.25
2023-03-25T05:18:02.763Z,76.82
2023-03-25T05:20:30.963Z,76.60
2023-03-25T05:22:58.417Z,77.42
2023-03-25T05:25:25.607Z,77.81
2023-03-25T05:27:52.582Z,77.90
2023-03-25T05:30:19.840Z,78.18
2023-03-25T05:32:50.832Z,78.55
2023-03-25T05:35:28.638Z,77.65
2023-03-25T05:37:56.276Z,79.26
2023-03-25T05:40:23.583Z,78.89
2023-03-25T05:42:50.753Z,77.90
2023-03-25T05:45:18.017Z,77.78
2023-03-25T05:47:45.039Z,77.24
2023-03-25T05:50:12.542Z,76.22
2023-03-25T05:52:41.756Z,76.08
2023-03-25T05:55:20.555Z,77.10
2023-03-25T05:57:48.271Z,76.07
2023-03-25T06:00:19.425Z,75.77
2023-03-25T06:02:48.882Z,77.01
2023-03-25T06:05:17.030Z,76.02
2023-03-25T06:07:47.626Z,75.57
2023-03-25T06:10:18.467Z,74.49
2023-03-25T06:12:47.141Z,74.95
2023-03-25T06:15:18.327Z,74.70
2023-03-25T06:17:47.422Z,74.71
2023-03-25T06:20:19.555Z,70.95
2023-03-25T06:22:47.004Z,67.97
2023-03-25T06:25:19.671Z,68.99
2023-03-25T06:27:51.362Z,63.51
2023-03-25T06:30:21.896Z,64.21
2023-03-25T06:32:50.953Z,62.61
2023-03-25T06:35:23.859Z,61.47
2023-03-25T06:37:50.855Z,56.09
2023-03-25T06:40:26.514Z,58.60
2023-03-25T06:42:53.760Z,61.30
2023-03-25T06:45:40.926Z,66.82
2023-03-25T06:48:21.393Z,64.06
2023-03-25T06:50:48.433Z,53.90
2023-03-25T06:53:15.591Z,55.91
2023-03-25T06:55:44.957Z,56.16
2023-03-25T06:58:12.153Z,58.51
2023-03-25T07:00:39.674Z,59.66
2023-03-25T07:03:06.745Z,53.88
2023-03-25T07:05:34.796Z,57.39
2023-03-25T07:08:01.948Z,50.59
2023-03-25T07:10:29.996Z,52.62
2023-03-25T07:12:57.127Z,57.91
2023-03-25T07:15:24.334Z,49.38
2023-03-25T07:17:51.325Z,49.98
2023-03-25T07:20:27.062Z,50.56
2023-03-25T07:22:55.509Z,52.39
2023-03-25T07:25:23.006Z,52.14
2023-03-25T07:27:50.351Z,51.72
2023-03-25T07:30:19.193Z,50.86
2023-03-25T07:32:46.389Z,48.68
2023-03-25T07:35:13.585Z,47.28
2023-03-25T07:37:40.781Z,46.78
2023-03-25T07:40:08.554Z,46.21
2023-03-25T07:42:38.662Z,47.60
2023-03-25T07:45:22.345Z,48.69
2023-03-25T07:47:53.386Z,47.48
2023-03-25T07:50:24.536Z,47.48
2023-03-25T07:52:58.141Z,49.05
2023-03-25T07:55:25.236Z,49.22
2023-03-25T07:57:52.276Z,48.33
2023-03-25T08:00:19.698Z,47.30
2023-03-25T08:02:46.731Z,48.05
2023-03-25T08:05:16.411Z,46.14
2023-03-25T08:07:43.396Z,45.58
2023-03-25T08:10:10.812Z,47.20
2023-03-25T08:12:37.881Z,46.88
2023-03-25T08:15:05.292Z,45.92
2023-03-25T08:17:32.419Z,45.90
2023-03-25T08:20:00.895Z,46.63
2023-03-25T08:22:28.089Z,42.97
2023-03-25T08:24:55.360Z,41.82
2023-03-25T08:27:22.444Z,43.74
2023-03-25T08:29:57.734Z,44.65
2023-03-25T08:32:26.510Z,42.51
2023-03-25T08:34:55.081Z,42.51
2023-03-25T08:37:22.532Z,39.50
2023-03-25T08:39:50.533Z,44.94
2023-03-25T08:42:18.169Z,44.77
2023-03-25T08:44:45.307Z,44.22
2023-03-25T08:47:12.347Z,42.83
2023-03-25T08:49:39.385Z,43.25
2023-03-25T08:52:08.860Z,40.89
2023-03-25T08:54:36.612Z,44.12
2023-03-25T08:57:03.860Z,43.08
2023-03-25T08:59:30.770Z,40.76
2023-03-25T09:01:59.432Z,42.61
2023-03-25T09:04:27.900Z,43.06
2023-03-25T09:07:11.464Z,42.91
2023-03-25T09:09:40.515Z,45.02
2023-03-25T09:12:07.977Z,40.03
2023-03-25T09:14:35.280Z,42.28
2023-03-25T09:17:02.582Z,43.33
2023-03-25T09:19:29.652Z,41.89
2023-03-25T09:21:56.596Z,38.31
2023-03-25T09:24:23.914Z,40.80
2023-03-25T09:26:51.038Z,40.25
2023-03-25T09:29:18.499Z,41.20
2023-03-25T09:31:45.568Z,40.66
2023-03-25T09:34:14.089Z,41.71
2023-03-25T09:36:42.925Z,38.31
2023-03-25T09:39:10.498Z,39.78
2023-03-25T09:41:52.309Z,38.90
2023-03-25T09:44:30.761Z,39.66
2023-03-25T09:47:02.300Z,41.11
2023-03-25T09:49:42.639Z,39.22
2023-03-25T09:52:21.639Z,38.99
2023-03-25T09:54:55.600Z,39.27
2023-03-25T09:57:29.275Z,37.32
2023-03-25T09:59:59.797Z,37.92
2023-03-25T10:02:43.198Z,39.60
2023-03-25T10:05:39.513Z,33.24
2023-03-25T10:08:26.616Z,35.41
2023-03-25T10:11:05.109Z,36.68
2023-03-25T10:13:32.184Z,35.81
2023-03-25T10:16:29.481Z,37.11
2023-03-25T10:19:02.476Z,37.50
2023-03-25T10:21:35.756Z,31.94
2023-03-25T10:24:29.095Z,33.71
2023-03-25T10:27:05.526Z,32.54
2023-03-25T10:29:39.480Z,35.11
2023-03-25T10:32:12.322Z,34.75
2023-03-25T10:34:46.946Z,30.14
2023-03-25T10:37:28.977Z,32.88
2023-03-25T10:40:08.548Z,34.38
2023-03-25T10:42:40.988Z,31.00
2023-03-25T10:45:16.566Z,29.57
2023-03-25T10:47:46.493Z,34.00
2023-03-25T10:50:17.933Z,34.10
2023-03-25T10:52:47.269Z,31.05
2023-03-25T10:55:32.923Z,33.87
2023-03-25T10:58:01.824Z,32.71
2023-03-25T11:00:30.629Z,32.43
2023-03-25T11:02:57.901Z,30.95
2023-03-25T11:05:28.638Z,31.03
2023-03-25T11:08:18.154Z,32.19
2023-03-25T11:10:51.377Z,30.63
2023-03-25T11:13:22.276Z,29.70
2023-03-25T11:15:52.736Z,31.08
2023-03-25T11:18:33.968Z,27.60
2023-03-25T11:21:11.687Z,29.76
2023-03-25T11:23:45.453Z,28.81
2023-03-25T11:26:24.556Z,28.46
2023-03-25T11:29:02.587Z,29.20
2023-03-25T11:31:35.377Z,29.62
2023-03-25T11:34:11.555Z,31.35
2023-03-25T11:36:55.258Z,29.65
2023-03-25T11:39:39.938Z,29.45
2023-03-25T11:42:19.686Z,29.05
2023-03-25T11:44:52.442Z,29.81
2023-03-25T11:47:38.219Z,29.54
2023-03-25T11:50:07.177Z,28.58
2023-03-25T11:52:45.890Z,29.24
2023-03-25T11:55:32.950Z,29.94
2023-03-25T11:58:02.261Z,29.98
2023-03-25T12:00:50.209Z,30.11
2023-03-25T12:03:23.260Z,30.56
2023-03-25T12:06:01.496Z,30.33
2023-03-25T12:08:43.877Z,31.71
2023-03-25T12:11:25.275Z,32.22
2023-03-25T12:14:11.176Z,33.29
2023-03-25T12:16:49.134Z,33.59
2023-03-25T12:19:31.372Z,32.92
2023-03-25T12:22:04.190Z,34.71
2023-03-25T12:24:50.982Z,35.52
2023-03-25T12:27:59.238Z,33.99
2023-03-25T12:31:11.552Z,35.46
2023-03-25T12:34:01.953Z,35.71
2023-03-25T12:36:28.848Z,35.64
2023-03-25T12:39:32.236Z,35.84
2023-03-25T12:42:33.888Z,35.99
2023-03-25T12:45:37.903Z,35.67
2023-03-25T12:48:23.341Z,36.52
2023-03-25T12:51:08.963Z,36.53
2023-03-25T12:53:41.426Z,36.44
2023-03-25T12:56:11.554Z,36.80
2023-03-25T12:59:07.130Z,37.33
2023-03-25T13:01:53.181Z,35.65
2023-03-25T13:04:39.563Z,39.08
2023-03-25T13:07:22.023Z,38.23
2023-03-25T13:10:10.770Z,36.79
2023-03-25T13:13:25.835Z,36.52
2023-03-25T13:16:18.795Z,35.36
2023-03-25T13:18:50.088Z,35.62
2023-03-25T13:21:21.918Z,34.19
2023-03-25T13:23:55.496Z,34.70
2023-03-25T13:26:26.394Z,34.44
2023-03-25T13:29:02.303Z,34.46
2023-03-25T13:31:42.437Z,36.29
2023-03-25T13:34:35.319Z,35.92
2023-03-25T13:37:04.903Z,36.66
2023-03-25T13:39:45.372Z,35.76
2023-03-25T13:42:29.450Z,35.46
2023-03-25T13:44:59.101Z,35.99
2023-03-25T13:47:33.183Z,37.57
2023-03-25T13:50:18.922Z,37.70
2023-03-25T13:52:51.741Z,38.36
2023-03-25T13:55:25.964Z,37.11
2023-03-25T13:58:09.285Z,37.53
2023-03-25T14:01:10.585Z,38.37
2023-03-25T14:03:56.125Z,38.72
2023-03-25T14:06:29.763Z,39.97
2023-03-25T14:09:34.437Z,40.11
2023-03-25T14:12:04.350Z,40.12
2023-03-25T14:14:36.594Z,40.63
2023-03-25T14:17:05.855Z,40.39
2023-03-25T14:19:38.525Z,39.43
2023-03-25T14:22:16.060Z,41.03
2023-03-25T14:24:45.115Z,41.12
2023-03-25T14:27:30.119Z,40.91
2023-03-25T14:30:15.822Z,41.10
2023-03-25T14:32:44.819Z,40.13
2023-03-25T14:35:41.431Z,41.27
2023-03-25T14:38:08.718Z,40.73
2023-03-25T14:41:02.051Z,41.17
2023-03-25T14:43:40.531Z,40.61
2023-03-25T14:46:13.477Z,41.15
2023-03-25T14:48:49.276Z,40.65
2023-03-25T14:51:23.360Z,40.88
2023-03-25T14:53:56.066Z,41.16
2023-03-25T14:56:31.804Z,41.74
2023-03-25T14:59:06.797Z,42.32
2023-03-25T15:01:37.135Z,42.09
2023-03-25T15:04:19.494Z,42.55
2023-03-25T15:06:49.300Z,43.16
2023-03-25T15:09:19.480Z,43.69
2023-03-25T15:12:05.361Z,43.85
2023-03-25T15:14:36.749Z,43.72
2023-03-25T15:17:11.351Z,43.81
2023-03-25T15:20:03.278Z,44.62
2023-03-25T15:22:30.705Z,44.75
2023-03-25T15:25:02.611Z,44.79
2023-03-25T15:27:40.269Z,44.83
2023-03-25T15:30:33.893Z,43.48
2023-03-25T15:33:17.681Z,43.96
2023-03-25T15:35:59.618Z,44.45
2023-03-25T15:39:01.630Z,44.68
2023-03-25T15:42:11.676Z,45.47
2023-03-25T15:44:53.289Z,45.16
2023-03-25T15:47:25.863Z,45.82
2023-03-25T15:50:35.731Z,45.81
2023-03-25T15:53:06.438Z,46.80
2023-03-25T15:56:12.357Z,47.50
2023-03-25T15:58:57.999Z,48.44
2023-03-25T16:01:29.551Z,48.13
2023-03-25T16:04:02.263Z,48.03
2023-03-25T16:06:31.726Z,48.08
2023-03-25T16:09:00.715Z,48.07
2023-03-25T16:11:28.854Z,48.83
2023-03-25T16:14:17.403Z,52.23
2023-03-25T16:16:56.880Z,52.32
2023-03-25T16:19:30.386Z,52.50
2023-03-25T16:22:02.572Z,51.61
2023-03-25T16:24:36.566Z,52.19
2023-03-25T16:27:13.447Z,53.24
2023-03-25T16:29:41.559Z,53.92
2023-03-25T16:32:19.432Z,53.70
2023-03-25T16:34:47.504Z,53.36
2023-03-25T16:37:16.361Z,53.98
2023-03-25T16:39:43.665Z,55.74
2023-03-25T16:42:19.551Z,55.16
2023-03-25T16:44:48.293Z,54.63
2023-03-25T16:47:16.242Z,54.54
2023-03-25T16:49:47.948Z,54.75
2023-03-25T16:52:24.218Z,54.55
2023-03-25T16:54:51.111Z,54.70
2023-03-25T16:57:25.949Z,54.53
2023-03-25T16:59:53.948Z,54.73
2023-03-25T17:02:28.019Z,55.31
2023-03-25T17:05:11.822Z,55.43
2023-03-25T17:07:42.329Z,55.23
2023-03-25T17:10:49.662Z,54.97
2023-03-25T17:13:50.848Z,54.60
2023-03-25T17:16:22.174Z,54.41
2023-03-25T17:18:53.542Z,54.89
2023-03-25T17:21:27.348Z,54.99
2023-03-25T17:23:56.521Z,55.01
2023-03-25T17:26:26.693Z,54.96
2023-03-25T17:29:02.196Z,54.90
2023-03-25T17:31:34.879Z,54.30
2023-03-25T17:34:15.772Z,54.42
2023-03-25T17:36:47.968Z,53.86
2023-03-25T17:39:26.446Z,54.47
2023-03-25T17:42:18.585Z,54.45
2023-03-25T17:44:53.144Z,54.85
2023-03-25T17:47:21.417Z,55.17
2023-03-25T17:49:48.731Z,56.03
2023-03-25T17:52:15.651Z,56.52
2023-03-25T17:54:42.768Z,56.79
2023-03-25T17:57:21.959Z,56.97
2023-03-25T17:59:49.151Z,57.54
2023-03-25T18:02:17.716Z,58.64
2023-03-25T18:04:48.239Z,58.78
2023-03-25T18:07:15.668Z,59.27
2023-03-25T18:09:42.676Z,59.70
2023-03-25T18:12:11.499Z,62.02
2023-03-25T18:14:38.590Z,61.43
2023-03-25T18:17:06.051Z,61.41
2023-03-25T18:19:34.243Z,61.40
2023-03-25T18:22:09.858Z,61.92
2023-03-25T18:24:41.148Z,61.39
2023-03-25T18:27:11.133Z,61.38
2023-03-25T18:29:39.903Z,62.21
2023-03-25T18:32:07.131Z,62.34
2023-03-25T18:34:34.711Z,62.16
2023-03-25T18:37:02.345Z,62.60
2023-03-25T18:39:32.307Z,63.15
2023-03-25T18:41:59.341Z,62.42
2023-03-25T18:44:28.639Z,62.16
2023-03-25T18:46:56.899Z,60.46
2023-03-25T18:49:23.971Z,59.95
2023-03-25T18:51:51.456Z,60.74
2023-03-25T18:54:18.865Z,60.52
2023-03-25T18:56:46.033Z,60.59
2023-03-25T18:59:21.436Z,60.79
2023-03-25T19:01:48.518Z,60.65
2023-03-25T19:04:15.612Z,59.43
2023-03-25T19:06:43.114Z,59.13
2023-03-25T19:09:18.954Z,59.88
2023-03-25T19:11:47.300Z,59.98
2023-03-25T19:14:14.453Z,60.20
2023-03-25T19:19:23.190Z,60.21
2023-03-25T19:21:50.516Z,60.60
2023-03-25T19:24:17.619Z,60.27
2023-03-25T19:26:44.845Z,60.20
2023-03-25T19:29:11.996Z,60.11
2023-03-25T19:31:39.032Z,60.23
2023-03-25T19:34:08.332Z,60.51
2023-03-25T19:36:35.378Z,60.74
2023-03-25T19:39:06.114Z,60.71
2023-03-25T19:41:34.976Z,59.92
2023-03-25T19:44:02.202Z,60.22
2023-03-25T19:46:33.787Z,60.93
2023-03-25T19:49:01.339Z,60.98
2023-03-25T19:51:28.451Z,61.54
2023-03-25T19:53:55.496Z,62.91
2023-03-25T19:56:22.687Z,63.23
2023-03-25T19:58:49.814Z,62.94
2023-03-25T20:01:17.107Z,62.65
2023-03-25T20:03:44.389Z,63.21
2023-03-25T20:06:11.474Z,63.02
2023-03-25T20:08:41.279Z,62.95
2023-03-25T20:11:10.489Z,62.95
2023-03-25T20:13:37.932Z,62.71
2023-03-25T20:16:05.919Z,62.99
2023-03-25T20:18:32.947Z,62.70
2023-03-25T20:21:00.155Z,62.82
2023-03-25T20:23:27.218Z,62.87
2023-03-25T20:25:54.475Z,62.94
2023-03-25T20:28:22.955Z,63.35
2023-03-25T20:30:50.276Z,63.03
2023-03-25T20:33:17.670Z,63.05
2023-03-25T20:35:45.660Z,62.77
2023-03-25T20:38:14.476Z,63.03
2023-03-25T20:40:45.121Z,62.65
2023-03-25T20:43:14.577Z,62.22
2023-03-25T20:45:42.801Z,62.30
2023-03-25T20:48:09.879Z,61.91
2023-03-25T20:50:37.147Z,61.91
2023-03-25T20:53:04.616Z,61.69
2023-03-25T20:55:32.908Z,60.75
2023-03-25T20:58:00.126Z,60.70
2023-03-25T21:00:27.264Z,61.45
2023-03-25T21:02:54.732Z,60.47
2023-03-25T21:05:22.111Z,60.84
2023-03-25T21:07:49.414Z,61.07
2023-03-25T21:10:16.701Z,60.92
2023-03-25T21:12:45.013Z,61.02
2023-03-25T21:15:15.010Z,60.96
2023-03-25T21:17:42.790Z,60.89
2023-03-25T21:20:10.724Z,60.88
2023-03-25T21:22:44.925Z,61.01
2023-03-25T21:25:15.004Z,61.06
2023-03-25T21:27:42.687Z,60.90
2023-03-25T21:30:10.357Z,61.07
2023-03-25T21:32:41.187Z,61.46
2023-03-25T21:35:09.553Z,60.92
2023-03-25T21:37:40.658Z,60.78
2023-03-25T21:40:11.038Z,61.12
2023-03-25T21:42:42.476Z,60.91
2023-03-25T21:45:13.705Z,61.29
2023-03-25T21:47:41.731Z,61.78
2023-03-25T21:50:10.948Z,62.03
2023-03-25T21:52:43.238Z,61.99
2023-03-25T21:55:11.436Z,61.54
2023-03-25T21:57:39.782Z,61.76
2023-03-25T22:00:09.211Z,61.64
2023-03-25T22:02:38.996Z,61.96
2023-03-25T22:05:06.729Z,62.21
2023-03-25T22:07:33.692Z,62.30
2023-03-25T22:10:00.845Z,62.10
2023-03-25T22:12:27.808Z,62.58
2023-03-25T22:14:54.786Z,63.04
2023-03-25T22:17:21.878Z,62.84
2023-03-25T22:19:49.139Z,62.68
2023-03-25T22:22:19.306Z,62.48
2023-03-25T22:24:47.132Z,62.54
2023-03-25T22:27:14.336Z,62.38
2023-03-25T22:29:44.777Z,62.62
2023-03-25T22:32:11.888Z,62.92
2023-03-25T22:34:39.667Z,62.69
2023-03-25T22:37:07.142Z,63.23
2023-03-25T22:39:34.393Z,62.98
2023-03-25T22:42:01.622Z,63.21
2023-03-25T22:44:28.733Z,62.92
2023-03-25T22:46:56.624Z,62.79
2023-03-25T22:49:23.783Z,62.50
2023-03-25T22:51:51.336Z,62.81
2023-03-25T22:54:18.597Z,63.03
2023-03-25T22:56:46.281Z,63.08
2023-03-25T22:59:14.677Z,63.34
2023-03-25T23:01:42.777Z,64.30
2023-03-25T23:04:10.239Z,63.39
2023-03-25T23:06:37.504Z,63.15
2023-03-25T23:09:06.682Z,63.45
2023-03-25T23:11:35.787Z,63.56
2023-03-25T23:14:08.846Z,63.42
2023-03-25T23:16:39.021Z,63.70
2023-03-25T23:19:07.186Z,63.84
2023-03-25T23:21:34.729Z,63.28
2023-03-25T23:24:08.435Z,63.77
2023-03-25T23:26:39.249Z,64.13
2023-03-25T23:29:09.349Z,65.77
2023-03-25T23:31:38.048Z,65.22
2023-03-25T23:34:07.839Z,65.21
2023-03-25T23:36:37.113Z,67.08
2023-03-25T23:39:13.753Z,66.71
2023-03-25T23:41:41.387Z,66.62
2023-03-25T23:44:08.459Z,66.43
2023-03-25T23:46:35.775Z,66.27
2023-03-25T23:49:03.120Z,66.55
2023-03-25T23:51:37.002Z,66.68
2023-03-25T23:54:06.757Z,66.09
2023-03-25T23:56:33.844Z,66.63
2023-03-25T23:59:01.980Z,67.75
